Latest Weather Observations for Fowlers Gap

IDN60801

Issued at 9:22 am EDT Wednesday 24 October 2018 (issued every 10 minutes, with the page automatically refreshed every 10 minutes)

About weather observations | Map of weather stations | Latest weather observations for NSW | Other Formats
Station Details ID: 046128 Name: FOWLERS GAP AWS Lat: -31.09 Lon: 141.70 Height: 181.0 m
Data from the previous 72 hours. | See also: Recent months at Fowlers Gap
Date/Time
EDT
Temp
°C
App
Temp
°C
Dew
Point
°C
Rel
Hum
%
Delta-T
°C
Wind Press
QNH
hPa
Press
MSL
hPa
Rain since
9am
mm
Dir  Spd
km/h
Gust
km/h
Spd
kts
Gust
kts
24/09:00am 16.5 9.0 1.0 35 6.8 SE 30 39 16 21 1020.5 1020.0 0.0
24/08:30am 15.2 7.3 1.0 38 6.2 SE 32 41 17 22 1020.3 1019.8 0.0
24/08:00am 14.3 6.4 1.2 41 5.7 SE 32 41 17 22 1019.9 1019.4 0.0
24/07:30am 13.8 7.5 1.5 43 5.4 SSE 24 32 13 17 1019.5 1019.0 0.0
24/07:00am 13.4 7.5 1.4 44 5.2 SSE 22 32 12 17 1019.2 1018.7 0.0
24/06:30am 13.8 7.1 1.5 43 5.4 SSE 26 37 14 20 1018.9 1018.4 0.0
24/06:00am 14.2 7.5 1.5 42 5.5 SSE 26 37 14 20 1018.6 1018.0 0.0
24/05:30am 14.8 8.1 1.7 41 5.8 SSE 26 39 14 21 1018.2 1017.6 0.0
24/05:00am 15.4 9.5 1.5 39 6.1 SSE 22 33 12 18 1018.0 1017.4 0.0
24/04:30am 16.0 10.0 1.3 37 6.5 SSE 22 33 12 18 1017.8 1017.2 0.0
24/04:00am 16.8 10.1 1.3 35 6.9 SSE 26 37 14 20 1017.8 1017.2 0.0
24/03:30am 17.2 10.8 1.2 34 7.1 SE 24 35 13 19 1017.9 1017.3 0.0
24/03:00am 17.6 10.9 1.2 33 7.3 SE 26 37 14 20 1017.7 1017.1 0.0
24/02:30am 18.0 11.2 0.6 31 7.7 SE 26 37 14 20 1017.6 1017.0 0.0
24/02:00am 18.5 10.9 0.6 30 8.0 SSE 30 41 16 22 1017.4 1016.8 0.0
24/01:30am 19.1 11.4 0.2 28 8.4 SSE 30 39 16 21 1017.4 1016.8 0.0
24/01:00am 19.7 12.4 -0.3 26 8.8 SSE 28 37 15 20 1017.6 1017.0 0.0
24/12:30am 20.3 13.4 0.2 26 9.0 SSE 26 37 14 20 1017.6 1017.0 0.0
24/12:00am 20.5 13.2 -0.2 25 9.2 SSE 28 37 15 20 1017.8 1017.2 0.0
 
Date/Time
EDT
Temp
°C
App
Temp
°C
Dew
Point
°C
Rel
Hum
%
Delta-T
°C
Wind Press
QNH
hPa
Press
MSL
hPa
Rain since
9am
mm
Dir  Spd
km/h
Gust
km/h
Spd
kts
Gust
kts
23/11:30pm 20.9 13.9 -0.4 24 9.5 SSE 26 41 14 22 1017.9 1017.3 0.0
23/11:00pm 21.6 13.3 -0.4 23 9.8 SSE 33 43 18 23 1017.6 1017.0 0.0
23/10:30pm 22.8 15.0 2.8 27 9.6 SSE 33 48 18 26 1017.3 1016.7 0.0
23/10:00pm 23.7 18.5 3.6 27 9.9 SSE 20 28 11 15 1016.9 1016.3 0.0
23/09:30pm 24.3 18.3 3.6 26 10.2 SSE 24 30 13 16 1016.4 1015.8 0.0
23/09:00pm 25.0 18.8 4.2 26 10.4 SSE 26 33 14 18 1016.0 1015.4 0.0
23/08:30pm 25.8 18.8 4.3 25 10.9 SSE 30 41 16 22 1015.3 1014.7 0.0
23/08:00pm 26.8 20.8 3.3 22 11.7 SSE 24 33 13 18 1014.8 1014.3 0.0
23/07:30pm 27.6 20.5 3.3 21 12.2 S 30 35 16 19 1014.3 1013.8 0.0
23/07:00pm 28.7 23.4 2.8 19 13.0 SSE 20 32 11 17 1013.7 1013.1 0.0
23/06:30pm 29.5 24.2 1.9 17 13.7 SSE 19 26 10 14 1013.4 1012.8 0.0
23/06:00pm 30.2 25.0 -0.2 14 14.6 SSW 17 24 9 13 1013.1 1012.5 0.0
23/05:30pm 30.1 24.5 -0.3 14 14.6 SSW 19 28 10 15 1013.0 1012.4 0.0
23/05:00pm 30.3 24.8 0.8 15 14.4 S 19 30 10 16 1012.9 1012.3 0.0
23/04:30pm 30.0 24.3 0.6 15 14.3 SSW 20 33 11 18 1012.9 1012.3 0.0
23/04:00pm 29.6 24.0 0.2 15 14.2 SE 19 26 10 14 1013.0 1012.4 0.0
23/03:30pm 29.8 24.1 -0.5 14 14.4 S 19 32 10 17 1013.1 1012.5 0.0
23/03:00pm 29.8 24.8 -1.5 13 14.7 SSW 15 24 8 13 1013.4 1012.8 0.0
23/02:30pm 30.0 24.2 -1.4 13 14.8 SSE 19 33 10 18 1013.6 1013.0 0.0
23/02:00pm 29.2 24.1 -2.0 13 14.4 SSE 15 22 8 12 1013.8 1013.2 0.0
23/01:30pm 28.7 23.3 -1.4 14 14.0 SSE 17 26 9 14 1014.1 1013.6 0.0
23/01:00pm 27.7 22.9 -2.2 14 13.6 S 13 22 7 12 1014.3 1013.8 0.0
23/12:30pm 27.7 22.7 -1.3 15 13.4 SSE 15 20 8 11 1014.7 1014.2 0.0
23/12:00pm 26.4 21.4 -1.4 16 12.7 SSE 15 20 8 11 1014.8 1014.3 0.0
23/11:30am 25.6 20.2 -1.2 17 12.2 SE 17 24 9 13 1014.9 1014.4 0.0
23/11:00am 25.0 19.3 -0.9 18 11.8 SE 19 26 10 14 1014.8 1014.3 0.0
23/10:30am 23.9 18.1 -0.4 20 11.1 SE 20 28 11 15 1014.9 1014.4 0.0
23/10:00am 23.0 16.7 -1.1 20 10.8 SE 22 28 12 15 1014.7 1014.2 0.0
23/09:30am 21.6 14.9 -1.0 22 10.0 SSE 24 30 13 16 1014.6 1014.1 0.0
23/09:00am 20.7 14.0 -1.1 23 9.6 SSE 24 37 13 20 1014.5 1014.0 0.0
23/08:30am 21.7 17.6 -6.9 14 11.3 SW 7 15 4 8 1014.0 1013.4 0.0
23/08:00am 19.6 13.9 -7.7 15 10.4 SW 15 24 8 13 1013.4 1012.8 0.0
23/07:30am 16.4 13.4 -8.7 17 9.0 CALM 0 0 0 0 1012.6 1012.0 0.0
23/07:00am 16.3 13.4 -8.0 18 8.8 CALM 0 0 0 0 1012.3 1011.7 0.0
23/06:30am 17.7 13.1 -7.6 17 9.4 SW 9 13 5 7 1011.9 1011.3 0.0
23/06:00am 18.2 13.6 -8.0 16 9.8 WSW 9 15 5 8 1011.3 1010.7 0.0
23/05:30am 20.3 16.2 -6.3 16 10.5 WSW 7 9 4 5 1011.1 1010.5 0.0
23/05:00am 21.8 18.6 -6.8 14 11.3 WSW 2 7 1 4 1010.4 1009.8 0.0
23/04:30am 23.2 17.6 -6.7 13 12.0 N 15 19 8 10 1010.3 1009.7 0.0
23/04:00am 24.1 17.5 -7.0 12 12.6 N 20 26 11 14 1010.4 1009.8 0.0
23/03:30am 24.2 17.1 -8.1 11 12.8 N 22 28 12 15 1010.5 1009.9 0.0
23/03:00am 24.0 17.3 -8.2 11 12.7 N 20 26 11 14 1010.7 1010.1 0.0
23/02:30am 20.4 15.0 -8.9 13 11.0 N 13 15 7 8 1011.0 1010.4 0.0
23/02:00am 20.9 15.8 -9.5 12 11.3 N 11 15 6 8 1011.3 1010.7 0.0
23/01:30am 20.4 15.3 -8.9 13 11.0 N 11 13 6 7 1011.8 1011.2 0.0
23/01:00am 20.9 16.2 -9.5 12 11.3 NNW 9 11 5 6 1012.1 1011.5 0.0
23/12:30am 21.0 16.6 -10.5 11 11.5 NNW 7 7 4 4 1012.3 1011.7 0.0
23/12:00am 21.9 17.5 -9.9 11 11.9 NNW 7 9 4 5 1012.3 1011.7 0.0
 
Date/Time
EDT
Temp
°C
App
Temp
°C
Dew
Point
°C
Rel
Hum
%
Delta-T
°C
Wind Press
QNH
hPa
Press
MSL
hPa
Rain since
9am
mm
Dir  Spd
km/h
Gust
km/h
Spd
kts
Gust
kts
22/11:30pm 21.6 18.2 -10.1 11 11.7 NNW 2 7 1 4 1012.4 1011.8 0.0
22/11:00pm 22.1 19.1 -9.7 11 11.9 CALM 0 7 0 4 1012.5 1011.9 0.0
22/10:30pm 21.5 18.4 -10.2 11 11.7 CALM 0 0 0 0 1012.4 1011.8 0.0
22/10:00pm 22.6 18.5 -9.3 11 12.1 NE 6 7 3 4 1012.3 1011.7 0.0
22/09:30pm 23.1 18.9 -10.1 10 12.5 NW 6 6 3 3 1012.4 1011.8 0.0
22/09:00pm 25.3 20.9 -9.8 9 13.6 N 7 9 4 5 1012.2 1011.6 0.0
22/08:30pm 26.0 21.7 -9.3 9 13.9 N 7 9 4 5 1012.1 1011.5 0.0
22/08:00pm 28.5 23.8 -8.9 8 15.2 NNW 9 13 5 7 1011.8 1011.2 0.0
22/07:30pm 29.5 24.5 -8.2 8 15.7 NNW 11 15 6 8 1011.7 1011.1 0.0
22/07:00pm 30.3 25.4 -7.6 8 16.0 NNW 11 19 6 10 1011.4 1010.8 0.0
22/06:30pm 30.6 24.8 -9.1 7 16.4 NNW 15 20 8 11 1011.3 1010.7 0.0
22/06:00pm 30.8 25.7 -8.9 7 16.5 NNW 11 17 6 9 1011.0 1010.4 0.0
22/05:30pm 30.9 25.1 -8.9 7 16.6 NNW 15 24 8 13 1011.2 1010.6 0.0
22/05:00pm 30.8 26.5 -8.9 7 16.5 NE 7 11 4 6 1011.5 1010.9 0.0
22/04:30pm 31.2 25.8 -8.6 7 16.7 WNW 13 17 7 9 1011.7 1011.1 0.0
22/04:00pm 30.7 24.3 -7.3 8 16.2 NNE 19 24 10 13 1011.9 1011.3 0.0
22/03:30pm 30.0 24.7 -7.8 8 15.9 N 13 26 7 14 1012.3 1011.7 0.0
22/03:00pm 30.0 25.4 -7.8 8 15.9 N 9 19 5 10 1012.8 1012.2 0.0
22/02:30pm 28.6 24.1 -7.3 9 15.0 NW 9 17 5 9 1013.5 1012.9 0.0
22/02:00pm 28.8 23.6 -5.8 10 14.9 NE 13 17 7 9 1013.9 1013.3 0.0
22/01:30pm 28.6 23.8 -6.0 10 14.8 N 11 17 6 9 1014.4 1013.9 0.0
22/01:00pm 28.0 23.3 -5.2 11 14.4 NE 11 19 6 10 1014.9 1014.4 0.0
22/12:30pm 27.4 22.8 -4.5 12 13.9 N 11 20 6 11 1015.2 1014.6 0.0
22/12:00pm 27.3 22.6 -4.6 12 13.9 NE 11 24 6 13 1015.7 1015.1 0.0
22/11:30am 26.4 21.9 -3.2 14 13.1 NNE 11 17 6 9 1016.4 1015.8 0.0
22/11:00am 25.3 19.3 -3.2 15 12.5 NNE 19 26 10 14 1016.8 1016.2 0.0
22/10:30am 24.3 17.8 -2.3 17 11.8 NNE 22 28 12 15 1016.9 1016.3 0.0
22/10:00am 22.6 16.5 -2.2 19 10.8 NE 20 24 11 13 1017.1 1016.5 0.0
22/09:30am 21.0 14.9 -2.1 21 10.0 NE 20 28 11 15 1017.0 1016.4 0.0
22/09:00am 20.0 14.6 -1.7 23 9.3 ENE 17 20 9 11 1017.0 1016.4 0.0
22/08:30am 17.8 15.0 -3.0 24 8.5 ESE 2 7 1 4 1016.9 1016.3 0.0
22/08:00am 14.2 11.6 -5.0 26 7.3 CALM 0 0 0 0 1016.8 1016.2 0.0
22/07:30am 11.7 9.0 -6.2 28 6.4 CALM 0 0 0 0 1016.5 1015.9 0.0
22/07:00am 9.9 6.4 -6.8 30 5.8 S 4 6 2 3 1016.4 1015.8 0.0
22/06:30am 10.4 7.3 -6.0 31 5.8 SE 2 6 1 3 1015.9 1015.3 0.0
22/06:00am 10.1 6.9 -7.1 29 5.9 SE 2 6 1 3 1015.7 1015.1 0.0
22/05:30am 10.1 7.3 -7.1 29 5.9 CALM 0 0 0 0 1015.5 1014.9 0.0
22/05:00am 10.5 7.8 -6.3 30 5.9 CALM 0 0 0 0 1015.6 1015.0 0.0
22/04:30am 11.0 8.2 -6.8 28 6.2 CALM 0 0 0 0 1015.7 1015.1 0.0
22/04:00am 11.6 8.5 -6.3 28 6.4 SW 2 6 1 3 1015.5 1014.9 0.0
22/03:30am 12.3 8.2 -6.6 26 6.8 S 7 7 4 4 1015.5 1014.9 0.0
22/03:00am 14.3 11.4 -4.4 27 7.2 ENE 2 6 1 3 1015.4 1014.8 0.0
22/02:30am 14.5 10.8 -4.7 26 7.4 ENE 6 7 3 4 1015.3 1014.7 0.0
22/02:00am 14.3 10.0 -4.9 26 7.3 ENE 9 11 5 6 1015.4 1014.8 0.0
22/01:30am 14.2 11.5 -6.1 24 7.5 CALM 0 7 0 4 1015.8 1015.2 0.0
22/01:00am 14.8 12.1 -6.1 23 7.8 CALM 0 0 0 0 1015.8 1015.2 0.0
22/12:30am 15.7 12.9 -6.5 21 8.3 CALM 0 0 0 0 1016.0 1015.4 0.0
22/12:00am 17.0 14.3 -6.1 20 8.8 CALM 0 0 0 0 1016.2 1015.6 0.0
 
Date/Time
EDT
Temp
°C
App
Temp
°C
Dew
Point
°C
Rel
Hum
%
Delta-T
°C
Wind Press
QNH
hPa
Press
MSL
hPa
Rain since
9am
mm
Dir  Spd
km/h
Gust
km/h
Spd
kts
Gust
kts
21/11:30pm 17.8 15.2 -5.4 20 9.1 CALM 0 0 0 0 1016.1 1015.5 0.0
21/11:00pm 18.8 16.2 -4.6 20 9.4 CALM 0 2 0 1 1016.3 1015.7 0.0
21/10:30pm 19.2 15.3 -5.0 19 9.7 NE 7 7 4 4 1016.4 1015.8 0.0
21/10:00pm 20.2 16.4 -4.1 19 10.0 ENE 7 9 4 5 1016.2 1015.6 0.0
21/09:30pm 21.5 17.3 -3.8 18 10.6 ENE 9 11 5 6 1016.0 1015.4 0.0
21/09:00pm 22.9 18.8 -3.4 17 11.2 E 9 13 5 7 1015.8 1015.2 0.0
21/08:30pm 23.7 19.5 -3.6 16 11.7 E 9 13 5 7 1015.7 1015.1 0.0
21/08:00pm 24.6 20.5 -2.9 16 12.0 E 9 13 5 7 1015.6 1015.0 0.0
21/07:30pm 25.8 21.6 -3.7 14 12.9 ESE 9 13 5 7 1015.5 1014.9 0.0
21/07:00pm 26.3 21.8 -3.3 14 13.1 SSE 11 17 6 9 1015.3 1014.7 0.0
21/06:30pm 26.7 23.1 -4.0 13 13.4 SSW 6 15 3 8 1015.2 1014.6 0.0
21/06:00pm 26.6 22.1 -3.1 14 13.2 SSW 11 19 6 10 1015.2 1014.6 0.0
21/05:30pm 26.6 23.0 -4.0 13 13.4 SE 6 13 3 7 1015.4 1014.8 0.0
21/05:00pm 26.0 21.1 -3.5 14 12.9 S 13 24 7 13 1015.6 1015.0 0.0
21/04:30pm 26.1 21.2 -3.5 14 13.0 SSW 13 20 7 11 1015.8 1015.2 0.0
21/04:00pm 25.6 20.8 -2.9 15 12.6 SE 13 24 7 13 1016.3 1015.7 0.0
21/03:30pm 25.5 21.1 -2.1 16 12.4 SSW 11 19 6 10 1016.9 1016.3 0.0
21/03:00pm 25.6 21.7 -1.2 17 12.2 SSE 9 22 5 12 1017.4 1016.8 0.0
21/02:30pm 24.8 19.8 -1.1 18 11.8 S 15 26 8 14 1017.8 1017.2 0.0
21/02:00pm 24.4 19.8 -0.7 19 11.4 SSE 13 20 7 11 1018.3 1017.7 0.0
21/01:30pm 23.4 19.7 -0.1 21 10.8 SSE 9 22 5 12 1018.8 1018.2 0.0
21/01:00pm 22.6 17.7 -0.2 22 10.3 S 15 24 8 13 1019.4 1018.9 0.0
21/12:30pm 21.8 16.6 0.4 24 9.8 SE 17 24 9 13 1019.8 1019.3 0.0
21/12:00pm 21.7 17.7 0.8 25 9.6 ESE 11 17 6 9 1020.2 1019.7 0.0
21/11:30am 20.7 17.2 1.1 27 9.0 SE 9 20 5 11 1020.4 1019.9 0.0
21/11:00am 20.0 15.3 1.0 28 8.6 ESE 15 24 8 13 1020.6 1020.1 0.0
21/10:30am 19.3 13.9 1.3 30 8.2 ESE 19 32 10 17 1020.9 1020.3 0.0
21/10:00am 18.1 12.5 1.2 32 7.6 ESE 20 28 11 15 1020.9 1020.3 0.0
21/09:30am 17.6 12.0 1.2 33 7.3 SE 20 28 11 15 1021.0 1020.4 0.0

Other Formats:

Comma delimited format used in spreadsheet applications
http://www.bom.gov.au/fwo/IDN60801/IDN60801.94686.axf

JavaScript Object Notation format (JSON) in row-major order
http://www.bom.gov.au/fwo/IDN60801/IDN60801.94686.json